Warning: Javascript must be enabled to use all the features on this page!


Page Loading - Please Wait...

Click to hideNews Bulletins

Peak Streamflow for the Nation

USGS 01594000 LITTLE PATUXENT RIVER AT SAVAGE, MD

Howard County, Maryland
Hydrologic Unit Code 02060006
Latitude  39°08'03.9", Longitude  76°48'58.2" NAD83
Drainage area 98.4  square miles
Gage datum 122.18 feet above NAVD88
Output formats
Table
Graph
Tab-separated file
peakfq (watstore) format
Reselect output format
Water
Year
Date Gage
Height
(feet)
Stream-
flow
(cfs)
1933 1933-08 17.50Bd  
1940 1940-04-20 7.91 2,920
1941 1940-11-27 5.32 1,430
1942 1942-07-11 6.76 2,260
1943 1943-05-12 8.58 3,040
1944 1943-11-09 9.35 3,480
1945 1945-07-18 12.14 5,080
1946 1945-12-06 7.41 2,410
1947 1947-05-01 5.92 1,660
1948 1948-02-14 9.101 3,320
1949 1949-01-06 6.24 1,810
1950 1950-09-11 7.54 2,460
1951 1950-11-25 7.32 2,720
1952 1952-09-01 13.15 6,280
1953 1952-11-22 10.42 4,580
1954 1953-12-14 5.63 1,710
1955 1955-08-13 12.95 6,150
1956 1956-07-21 9.14 3,130
1957 1957-04-05 6.22 2,060
1958 1958-07-12 7.79 3,000
1959 1959-09-02 7.91 3,080
1960 1960-09-12 7.26 2,690
1961 1961-04-13 8.71 3,560
1962 1962-03-12 9.41 3,980
1963 1963-03-06 8.16 3,230
1964 1964-01-09 9.09 3,780
1965 1965-03-05 7.90  
1966 1966-09-14 9.50  
1968 1968-01-14 9.34  
1972 1972-06-22 25.40 35,4007
1975 1975-09-26 16.74 12,300
1976 1976-01-01 10.85 4,700
1977 1977-03-22 7.53 1,960
1978 1978-01-26 12.90 6,900
1979 1979-09-06 15.59 10,400
1980 1979-10-01 9.70 3,640
1986 1986-04-16 7.49 1,250
1987 1986-12-25 10.59 3,180
1988 1988-01-20 9.64 2,460
1989 1989-05-06 14.87 8,380
1990 1989-11-16 8.90 1,990
1991 1991-03-23 10.71 3,290
1992 1992-05-31 7.67 1,330
1993 1992-11-23 10.19 3,140
1994 1993-11-28 14.21 7,910
1995 1995-01-07 6.83 1,010
1996 1996-01-19 14.10 7,750
1997 1996-11-08 13.89 7,440
1998 1998-03-09 12.40 5,460
1999 1999-09-16 13.27 6,580
2000 2000-03-21 9.20 2,330
2001 2001-06-23 12.30 5,340
2002 2001-11-26 7.14 1,120
2003 2003-09-23 12.92 6,110
2004 2003-12-11 12.83 6,000
2005 2005-01-14 11.61 4,550
2006 2006-06-26 18.74 16,400
2007 2006-11-16 11.78 4,360
2008 2008-05-12 10.98 3,530
2009 2008-12-12 8.46 1,690
2010 2010-03-13 11.44 4,030
2011 2011-09-07 16.15 11,000
2012 2011-12-08 10.28 3,040
2013 2012-10-30 15.96 10,600
2014 2014-04-30 17.971 14,7002
2015 2015-06-27 13.06 5,920
2016 2016-07-31 18.52 15,900
2017 2017-07-29 13.56 6,620
2018 2018-05-28 16.31 11,400
2019 2018-12-16 12.40 5,290
2020 2019-11-01 10.04 3,060
2021 2020-12-25 10.73 3,850
?
  Peak Gage-Height Qualification Codes.
?
  Peak Streamflow Qualification Codes.